createdAt,value
2019-02-18T00:02:05.589Z,109.73
2019-02-18T00:12:11.126Z,113.33
2019-02-18T00:22:16.812Z,125.07
2019-02-18T00:32:22.344Z,117.93
2019-02-18T00:42:28.067Z,117.97
2019-02-18T00:52:33.540Z,120.97
2019-02-18T01:02:39.255Z,101.30
2019-02-18T01:12:44.859Z,100.03
2019-02-18T01:22:50.416Z,114.33
2019-02-18T01:32:55.985Z,106.17
2019-02-18T01:43:01.642Z,111.13
2019-02-18T01:53:07.229Z,104.90
2019-02-18T02:03:12.768Z,107.93
2019-02-18T02:13:32.761Z,108.60
2019-02-18T02:23:38.462Z,101.80
2019-02-18T02:33:45.885Z,89.70
2019-02-18T02:43:51.569Z,89.43
2019-02-18T02:53:57.167Z,88.97
2019-02-18T03:04:02.779Z,81.40
2019-02-18T03:14:08.384Z,80.13
2019-02-18T03:24:13.926Z,77.60
2019-02-18T03:34:27.863Z,77.83
2019-02-18T03:44:34.441Z,79.23
2019-02-18T03:54:40.142Z,74.00
2019-02-18T04:04:45.756Z,69.27
2019-02-18T04:14:51.267Z,70.67
2019-02-18T04:24:56.779Z,78.87
2019-02-18T04:35:02.421Z,73.80
2019-02-18T04:45:12.003Z,69.57
2019-02-18T04:55:17.547Z,72.37
2019-02-18T05:05:23.068Z,73.23
2019-02-18T05:15:28.634Z,66.33
2019-02-18T05:25:34.225Z,72.07
2019-02-18T05:35:39.835Z,74.40
2019-02-18T05:45:45.422Z,72.57
2019-02-18T05:55:51.064Z,80.23
2019-02-18T06:05:56.662Z,85.13
2019-02-18T06:16:02.134Z,74.17
2019-02-18T06:26:07.747Z,78.83
2019-02-18T06:36:13.284Z,89.23
2019-02-18T06:46:23.277Z,75.07
2019-02-18T06:56:33.524Z,79.73
2019-02-18T07:06:49.494Z,79.57
2019-02-18T07:16:55.027Z,78.00
2019-02-18T07:27:00.540Z,82.13
2019-02-18T07:37:06.024Z,71.87
2019-02-18T07:47:11.719Z,81.73
2019-02-18T07:57:17.284Z,79.90
2019-02-18T08:07:22.735Z,81.47
2019-02-18T08:17:28.205Z,71.07
2019-02-18T08:27:33.669Z,69.17
2019-02-18T08:37:39.243Z,75.53
2019-02-18T08:47:44.713Z,74.10
2019-02-18T08:57:50.235Z,81.10
2019-02-18T09:07:55.855Z,68.27
2019-02-18T09:18:01.410Z,61.57
2019-02-18T09:28:06.954Z,62.03
2019-02-18T09:38:23.784Z,59.23
2019-02-18T09:48:19.743Z,60.80
2019-02-18T09:58:25.250Z,57.83
2019-02-18T10:08:30.793Z,55.53
2019-02-18T10:18:36.437Z,56.70
2019-02-18T10:28:42.040Z,60.30
2019-02-18T10:38:47.615Z,52.73
2019-02-18T10:48:53.228Z,49.43
2019-02-18T10:58:58.779Z,49.57
2019-02-18T11:09:06.134Z,51.43
2019-02-18T11:19:11.697Z,44.70
2019-02-18T11:29:17.317Z,51.93
2019-02-18T11:39:24.455Z,51.93
2019-02-18T11:49:30.142Z,51.70
2019-02-18T11:59:35.909Z,48.63
2019-02-18T12:09:41.378Z,45.40
2019-02-18T12:19:46.979Z,48.07
2019-02-18T12:29:53.415Z,44.87
2019-02-18T12:39:59.115Z,47.13
2019-02-18T12:50:06.292Z,42.73
2019-02-18T13:00:14.113Z,46.33
2019-02-18T13:10:19.883Z,47.90
2019-02-18T13:20:25.445Z,45.23
2019-02-18T13:30:31.964Z,40.83
2019-02-18T13:40:37.559Z,44.37
2019-02-18T13:50:43.112Z,32.10
2019-02-18T14:00:48.635Z,39.50
2019-02-18T14:10:55.333Z,43.33
2019-02-18T14:21:00.919Z,37.83
2019-02-18T14:31:06.584Z,33.60
2019-02-18T14:41:12.583Z,43.70
2019-02-18T14:51:18.174Z,33.67
2019-02-18T15:01:23.776Z,30.67
2019-02-18T15:11:29.678Z,33.23
2019-02-18T15:21:35.275Z,37.70
2019-02-18T15:31:40.766Z,35.97
2019-02-18T15:41:46.876Z,47.03
2019-02-18T15:51:52.556Z,49.33
2019-02-18T16:01:58.099Z,51.23
2019-02-18T16:12:05.761Z,46.03
2019-02-18T16:22:11.381Z,44.57
2019-02-18T16:32:17.333Z,58.83
2019-02-18T16:42:22.804Z,82.50
2019-02-18T16:52:29.038Z,74.60
2019-02-18T17:02:34.756Z,79.50
2019-02-18T17:12:40.327Z,112.33
2019-02-18T17:22:47.117Z,132.43
2019-02-18T17:32:53.098Z,128.97
2019-02-18T17:42:59.104Z,116.70
2019-02-18T17:53:44.479Z,104.37
2019-02-18T18:03:50.304Z,99.53
2019-02-18T18:13:57.012Z,95.67
2019-02-18T18:24:03.625Z,100.57
2019-02-18T18:34:09.679Z,106.90
2019-02-18T18:44:15.815Z,105.77
2019-02-18T18:54:23.780Z,92.97
2019-02-18T19:04:29.833Z,97.87
2019-02-18T19:14:36.013Z,136.37
2019-02-18T19:24:42.212Z,210.13
2019-02-18T19:34:48.185Z,134.60
2019-02-18T19:44:54.394Z,120.60
2019-02-18T19:55:00.480Z,104.87
2019-02-18T20:05:08.587Z,122.27
2019-02-18T20:15:16.759Z,119.43
2019-02-18T20:25:22.772Z,114.67
2019-02-18T20:35:28.712Z,102.70
2019-02-18T20:45:34.727Z,106.17
2019-02-18T20:55:40.714Z,94.50
2019-02-18T21:05:46.785Z,128.40
2019-02-18T21:15:52.774Z,130.43
2019-02-18T21:26:00.196Z,109.93
2019-02-18T21:36:06.073Z,122.47
2019-02-18T21:46:11.904Z,118.67
2019-02-18T21:56:18.796Z,115.03
2019-02-18T22:06:24.405Z,119.67
2019-02-18T22:16:30.012Z,113.47
2019-02-18T22:26:35.770Z,120.63
2019-02-18T22:36:41.277Z,142.73
2019-02-18T22:46:46.791Z,134.57
2019-02-18T22:56:52.339Z,146.47
2019-02-18T23:06:57.939Z,152.13
2019-02-18T23:17:03.396Z,180.20
2019-02-18T23:27:08.914Z,176.73
2019-02-18T23:37:14.511Z,130.33
2019-02-18T23:47:20.091Z,133.33
2019-02-18T23:57:25.578Z,131.57
